createdAt,value
2024-04-09T00:07:48.488Z,17.63
2024-04-09T00:18:12.524Z,17.58
2024-04-09T00:28:14.291Z,17.44
2024-04-09T00:38:15.980Z,17.37
2024-04-09T00:48:18.062Z,17.28
2024-04-09T00:58:22.017Z,17.39
2024-04-09T01:08:24.601Z,17.33
2024-04-09T01:18:26.178Z,17.34
2024-04-09T01:28:29.320Z,17.32
2024-04-09T01:38:30.868Z,17.28
2024-04-09T01:48:33.463Z,17.16
2024-04-09T01:58:35.295Z,17.08
2024-04-09T02:08:38.557Z,16.98
2024-04-09T02:18:40.217Z,16.88
2024-04-09T02:28:41.755Z,16.77
2024-04-09T02:38:44.743Z,16.61
2024-04-09T02:48:46.621Z,16.50
2024-04-09T02:58:48.449Z,16.25
2024-04-09T03:08:51.353Z,16.14
2024-04-09T03:18:55.007Z,15.92
2024-04-09T03:28:56.773Z,15.79
2024-04-09T03:38:58.330Z,15.68
2024-04-09T03:49:00.038Z,15.65
2024-04-09T03:59:01.678Z,15.69
2024-04-09T04:09:03.502Z,15.77
2024-04-09T04:19:05.178Z,15.91
2024-04-09T04:29:07.115Z,15.97
2024-04-09T04:39:08.954Z,15.96
2024-04-09T04:49:11.872Z,15.90
2024-04-09T04:59:13.546Z,15.91
2024-04-09T05:09:15.195Z,15.91
2024-04-09T05:19:16.881Z,15.83
2024-04-09T05:29:19.071Z,15.80
2024-04-09T05:39:20.894Z,15.80
2024-04-09T05:49:24.055Z,15.71
2024-04-09T05:59:25.676Z,15.71
2024-04-09T06:09:27.213Z,15.68
2024-04-09T06:19:28.869Z,15.65
2024-04-09T06:29:31.440Z,15.34
2024-04-09T06:39:33.202Z,15.11
2024-04-09T06:49:35.573Z,14.95
2024-04-09T06:59:37.110Z,14.86
2024-04-09T07:09:38.789Z,14.60
2024-04-09T07:19:40.482Z,14.31
2024-04-09T07:29:41.998Z,14.17
2024-04-09T07:39:46.023Z,14.08
2024-04-09T07:49:49.399Z,13.83
2024-04-09T07:59:51.456Z,13.68
2024-04-09T08:09:53.033Z,13.58
2024-04-09T08:19:55.944Z,13.74
2024-04-09T08:30:00.474Z,13.85
2024-04-09T08:40:02.767Z,14.21
2024-04-09T08:50:07.958Z,14.45
2024-04-09T09:00:11.517Z,14.47
2024-04-09T09:10:14.395Z,14.49
2024-04-09T09:20:17.792Z,14.64
2024-04-09T09:30:19.551Z,14.73
2024-04-09T09:40:22.872Z,14.53
2024-04-09T09:50:26.470Z,14.09
2024-04-09T10:00:29.164Z,13.98
2024-04-09T10:10:31.824Z,14.36
2024-04-09T10:20:38.645Z,14.53
2024-04-09T10:30:46.753Z,14.56
2024-04-09T10:40:49.397Z,14.64
2024-04-09T10:50:52.082Z,14.69
2024-04-09T11:00:53.865Z,14.65
2024-04-09T11:10:57.261Z,14.65
2024-04-09T11:21:01.098Z,14.78
2024-04-09T11:31:05.250Z,14.96
2024-04-09T11:41:06.936Z,14.98
2024-04-09T11:51:08.501Z,15.02
2024-04-09T12:01:10.453Z,15.11
2024-04-09T12:11:12.233Z,15.17
2024-04-09T12:21:14.105Z,15.29
2024-04-09T12:31:15.695Z,15.27
2024-04-09T12:41:19.680Z,15.18
2024-04-09T12:51:22.963Z,15.19
2024-04-09T13:01:24.753Z,15.25
2024-04-09T13:11:26.339Z,15.31
2024-04-09T13:21:27.864Z,15.48
2024-04-09T13:31:29.756Z,15.43
2024-04-09T13:41:31.993Z,15.45
2024-04-09T13:51:33.591Z,15.46
2024-04-09T14:01:35.146Z,15.33
2024-04-09T14:11:36.793Z,15.30
2024-04-09T14:21:38.431Z,15.20
2024-04-09T14:31:40.264Z,15.10
2024-04-09T14:41:42.147Z,15.01
2024-04-09T14:51:43.683Z,14.99
2024-04-09T15:01:45.479Z,14.86
2024-04-09T15:11:47.135Z,14.66
2024-04-09T15:21:48.947Z,14.79
2024-04-09T15:31:51.125Z,14.90
2024-04-09T15:41:52.677Z,14.93
2024-04-09T15:51:54.196Z,14.91
2024-04-09T16:01:55.762Z,14.75
2024-04-09T16:11:57.663Z,14.71
2024-04-09T16:21:59.256Z,14.65
2024-04-09T16:32:00.931Z,14.65
2024-04-09T16:42:02.603Z,14.48
2024-04-09T16:52:04.497Z,14.13
2024-04-09T17:02:06.668Z,14.28
2024-04-09T17:12:08.723Z,14.17
2024-04-09T17:22:11.137Z,14.03
2024-04-09T17:32:12.874Z,14.00
2024-04-09T17:42:14.674Z,13.95
2024-04-09T17:52:16.389Z,13.79
2024-04-09T18:02:18.099Z,13.54
2024-04-09T18:12:20.039Z,13.25
2024-04-09T18:22:22.748Z,13.11
2024-04-09T18:32:25.761Z,12.82
2024-04-09T18:42:27.457Z,12.79
2024-04-09T18:52:29.309Z,12.75
2024-04-09T19:02:31.378Z,12.61
2024-04-09T19:12:33.275Z,12.52
2024-04-09T19:22:34.862Z,12.45
2024-04-09T19:32:36.674Z,12.44
2024-04-09T19:42:38.360Z,12.28
2024-04-09T19:52:39.973Z,12.01
2024-04-09T20:02:41.912Z,12.23
2024-04-09T20:12:43.568Z,12.23
2024-04-09T20:22:45.196Z,12.10
2024-04-09T20:32:46.955Z,12.09
2024-04-09T20:42:48.705Z,11.87
2024-04-09T20:52:50.238Z,11.73
2024-04-09T21:02:51.893Z,11.61
2024-04-09T21:12:53.556Z,11.40
2024-04-09T21:22:55.139Z,11.25
2024-04-09T21:32:57.534Z,11.11
2024-04-09T21:42:59.127Z,11.16
2024-04-09T21:53:00.969Z,11.12
2024-04-09T22:03:02.681Z,11.16
2024-04-09T22:13:04.534Z,11.16
2024-04-09T22:23:07.630Z,11.13
2024-04-09T22:33:09.467Z,11.11
2024-04-09T22:43:11.326Z,11.04
2024-04-09T22:53:13.039Z,11.06
2024-04-09T23:03:14.654Z,11.09
2024-04-09T23:13:16.214Z,10.99
2024-04-09T23:23:18.685Z,10.94
2024-04-09T23:33:20.357Z,10.84
2024-04-09T23:43:21.950Z,10.92
2024-04-09T23:53:23.509Z,10.81
